Luke Air Force Base, AZ (85309)

12:58 AM MST en Octubre 22, 2014 (GMT -0700)
Serenity at Montecito - Estrella | Change Station
CLOSE
Current Station
Estación meteorológica personal
Location: Goodyear, AZ
Altura: 1060 ft
Estaciones meteorológicas cercanas

Alt 1060 ft 33.31 °N, 112.44 °W | Updated 24 seconds ago

Despejado
Despejado
74.1 ° F
Sensación térmica 77 ° F
N
0.9
Viento Variable Viento desde ONO
Gusts 3.0 mph

Hoy
Alta -- | Baja -- ° F
--% Posibilidad de precipitaciones
Ayer
Alta -- | Baja -- ° F
Precip. -- pul
6:40 AM 5:48 PM
Creciente menguante, 3% visible
Presión 29.82 pul
Visibilidad 10.0 Millas
Nubes Despejado
Índice de calor 77 ° F
Punto de rocío 52 ° F
Humedad 46%
Precipitaciones 0.00 pul
Espesor de la nieve No disponible.
UV 0.0 de una escala de 12
Polen 5.60 de una escala de 12
Calidad del aire No disponible.
Flu Activity No Activity
METAR KLUF 220658Z AUTO 35006KT 10SM CLR 20/12 A2985 RMK AO2 SLP097 T01960117 403070170 $

More Conditions Fewer Conditions

Presión 29.82 pul
Visibilidad 10.0 Millas
Nubes Despejado
Índice de calor 77 ° F
Punto de rocío 52 ° F
Humedad 46%
Precipitaciones 0.00 pul
Espesor de la nieve No disponible.
UV 0.0 de una escala de 12
Polen 5.60 de una escala de 12
Calidad del aire No disponible.
Flu Activity No Activity
METAR KLUF 220658Z AUTO 35006KT 10SM CLR 20/12 A2985 RMK AO2 SLP097 T01960117 403070170 $

More Conditions Fewer Conditions

10-Day Weather Forecast

Almanac

Astronomía

Oct. 22, 2014 Salida Puesta
Hora real 6:40 AM MST 5:48 PM MST
Crepúsculo civil 6:14 AM MST 6:13 PM MST
Crepúsculo náutico 5:45 AM MST 6:42 PM MST
Crepúsculo astronómico 5:17 AM MST 7:11 PM MST
Luna 5:28 AM MST 5:14 PM MST
Horas de luz 11h 58m
Horas de luz
11h 08m
Tomorrow will be 1m 55s shorter.
Creciente menguante, 3% of the Moon is Illuminated
Hoy
Creciente menguante
Oct 23
Nueva
Oct 30
Cuarto creciente
Nov 6
Luna llena
Nov 14
Cuarto menguante

Extremos de hoy

Máximos del estado Bajos del estado

Community

WunderPhotos

Upload Photos

1,763,889 ¡fotos cargadas!

Nearby

Grosos de nieve

Estación Profundido Altura
Workman Creek 0 in 6900 ft
Baker Butte 1 in 7300 ft
Promontory 1 in 7930 ft
Happy Jack 0 in 7630 ft
Mormon Mountain 0 in 7500 ft

Actividad de terremotos

Ciudad Distance Mag. Tiempo y dato
No hay informes recientes de la actividad sísmica.
Magnitud mínima muestra es 2,5.

Temperaturas de aguas costeras

Lugar Temperatura
Sin partes meteorológicos de las estaciones

Estaciones meteorológicas cercanas